LFJL/ETZ METAR and TAF weather

Enter ICAO airport designator
Station Type Date Time Source
LFJL METAR 2019/02/21 15:30 UTC NOAA

LFJL 211530Z AUTO 31008KT 280V340 CAVOK 14/06 Q1028 NOSIG


Station Type Date Time Source
LFJL Decoded METAR 2019/02/21 15:30 UTC NOAA

Metz-Nancy-Lorraine, France (LFJL) 48-59N 006-15E
Feb 21, 2019 - 10:30 AM EST / 2019.02.21 1530 UTC
Wind: from the NW (310 degrees) at 9 MPH (8 KT) (direction variable):0
Visibility: greater than 7 mile(s):0
Temperature: 57 F (14 C)
Dew Point: 42 F (6 C)
Relative Humidity: 58%
Pressure (altimeter): 30.36 in. Hg (1028 hPa)
ob: LFJL 211530Z AUTO 31008KT 280V340 CAVOK 14/06 Q1028 NOSIG
cycle: 15

Station Type Date Time Source
LFJL TAF 2019/02/21 12:21 UTC NOAA

TAF LFJL 211100Z 2112/2212 VRB03KT CAVOK
TEMPO 2113/2119 26006KT SCT025
BECMG 2123/2202 6000 BKN040 PROB40
TEMPO 2120/2201 4000 BR
TEMPO 2201/2211 3000 BR BKN005 PROB30
TEMPO 2203/2210 0800 FG -DZ VV///
BECMG 2210/2212 02006KT


Example: see airport list